Rio Grande, Ohio
Current Conditions -  °F | °C
As of 11:35 AM on Saturday 22 Nov 2014 (Local Time) from K3I2 Reporting Station
Overcast Overcast  
Wind Chill: 43°   Ceiling: 8000
Heat Index: 46°   Visibility: 10mi
Dew Point: 23°   Wind: 7mph
Humidity: 40%   Direction: 220°SW
Pressure: 30.32"   Gusts: NA
Location:  38.88°N, 82.38°W
Report Text: K3I2 221635Z AUTO 22006KT 10SM SCT070 OVC080 08/M05 A3032 RMK AO2
Loading
Personal Weather Stations






























Interactive Weather Map New forecast layout! Learn more

10-Day Weather Forecast

Advertisements
Track Severe Weather on mobile